Time;durP1;ratioP1;P1;durP2;ratioP2;P2;SDS_P1;SDS_P2;PMS_P1;PMS_P2;Temp;Humidity;BMP_temperature;BMP_pressure;BME280_temperature;BME280_humidity;BME280_pressure;Samples;Min_cycle;Max_cycle;Signal;HPM_P1;HPM_P2
2023/04/09 00:01:40;;;;;;;66.22;33.67;;;;;;;;;;6183042;23;20466;-85
2023/04/09 00:04:25;;;;;;;66.88;36.80;;;;;;;;;;6183088;23;20057;-86
2023/04/09 00:07:10;;;;;;;64.63;32.58;;;;;;;;;;6181289;23;20071;-85
2023/04/09 00:09:55;;;;;;;67.15;34.50;;;;;;;;;;6182794;23;20079;-86
2023/04/09 00:12:42;;;;;;;71.57;35.92;;;;;;;;;;6181896;23;20036;-85
2023/04/09 00:15:27;;;;;;;74.65;34.85;;;;;;;;;;6181851;23;20031;-86
2023/04/09 00:18:12;;;;;;;66.28;33.70;;;;;;;;;;6182391;23;20157;-85
2023/04/09 00:20:56;;;;;;;66.63;32.50;;;;;;;;;;6182095;23;20063;-85
2023/04/09 00:23:42;;;;;;;67.97;32.78;;;;;;;;;;6184804;23;20032;-85
2023/04/09 00:26:26;;;;;;;65.85;33.30;;;;;;;;;;6183710;23;20065;-85
2023/04/09 00:29:10;;;;;;;61.28;33.55;;;;;;;;;;6182901;23;20015;-84
2023/04/09 00:31:55;;;;;;;66.47;32.50;;;;;;;;;;6184104;23;20016;-85
2023/04/09 00:34:40;;;;;;;62.88;32.63;;;;;;;;;;6183633;23;20023;-85
2023/04/09 00:37:24;;;;;;;67.50;35.60;;;;;;;;;;6184525;23;20032;-85
2023/04/09 00:40:09;;;;;;;69.72;34.03;;;;;;;;;;6182962;23;20012;-85
2023/04/09 00:42:53;;;;;;;70.93;34.63;;;;;;;;;;6184515;23;20388;-87
2023/04/09 00:45:38;;;;;;;71.30;35.20;;;;;;;;;;6183615;23;20016;-85
2023/04/09 00:48:22;;;;;;;71.20;35.55;;;;;;;;;;6183504;23;20072;-85
2023/04/09 00:51:08;;;;;;;67.38;34.45;;;;;;;;;;6183888;23;20495;-85
2023/04/09 00:53:52;;;;;;;65.47;36.10;;;;;;;;;;6184781;23;20055;-85
2023/04/09 00:56:38;;;;;;;64.15;30.63;;;;;;;;;;6184459;23;20075;-85
2023/04/09 00:59:24;;;;;;;63.13;30.75;;;;;;;;;;6183499;23;20016;-85
2023/04/09 01:02:09;;;;;;;65.55;32.28;;;;;;;;;;6182735;23;20012;-85
2023/04/09 01:04:54;;;;;;;58.95;29.80;;;;;;;;;;6184583;23;20037;-85
2023/04/09 01:07:38;;;;;;;51.85;27.73;;;;;;;;;;6184571;23;20020;-85
2023/04/09 01:10:29;;;;;;;53.63;27.05;;;;;;;;;;6183238;23;20020;-85
2023/04/09 01:13:16;;;;;;;58.17;28.63;;;;;;;;;;6183900;23;20016;-85
2023/04/09 01:16:01;;;;;;;61.08;27.92;;;;;;;;;;6182510;23;20055;-86
2023/04/09 01:18:52;;;;;;;49.75;28.30;;;;;;;;;;6182998;23;20024;-85
2023/04/09 01:21:39;;;;;;;48.97;24.90;;;;;;;;;;6184353;23;20095;-86
2023/04/09 01:24:27;;;;;;;49.75;27.40;;;;;;;;;;6182714;23;20016;-85
2023/04/09 01:27:12;;;;;;;50.08;25.80;;;;;;;;;;6183699;23;20080;-85
2023/04/09 01:29:58;;;;;;;52.30;26.00;;;;;;;;;;6184415;23;20498;-85
2023/04/09 01:32:43;;;;;;;52.88;26.63;;;;;;;;;;6162040;23;20020;-85
2023/04/09 01:35:28;;;;;;;46.90;25.33;;;;;;;;;;6183087;23;20024;-85
2023/04/09 01:38:13;;;;;;;48.35;24.08;;;;;;;;;;6183621;23;20024;-85
2023/04/09 01:40:59;;;;;;;48.95;24.58;;;;;;;;;;6184191;23;20051;-85
2023/04/09 01:43:45;;;;;;;48.10;26.67;;;;;;;;;;6184225;23;20068;-85
2023/04/09 01:46:29;;;;;;;48.22;24.90;;;;;;;;;;6182817;23;20020;-85
2023/04/09 01:49:15;;;;;;;44.92;24.30;;;;;;;;;;6182272;23;20356;-85
2023/04/09 01:52:00;;;;;;;46.05;24.30;;;;;;;;;;6181841;23;20016;-85
2023/04/09 01:54:45;;;;;;;48.25;25.83;;;;;;;;;;6182830;23;20043;-85
2023/04/09 01:57:30;;;;;;;48.55;25.27;;;;;;;;;;6182902;23;20332;-85
2023/04/09 02:00:15;;;;;;;43.40;23.98;;;;;;;;;;6183334;23;20344;-85
2023/04/09 02:03:07;;;;;;;43.70;22.52;;;;;;;;;;6184005;23;20016;-85
2023/04/09 02:06:01;;;;;;;44.50;23.02;;;;;;;;;;6183908;23;20012;-84
2023/04/09 02:08:46;;;;;;;38.37;21.17;;;;;;;;;;6182237;23;20063;-85
2023/04/09 02:11:32;;;;;;;47.33;23.95;;;;;;;;;;6183651;23;20387;-85
2023/04/09 02:14:18;;;;;;;44.63;23.17;;;;;;;;;;6181807;23;20015;-85
2023/04/09 02:17:03;;;;;;;46.80;23.88;;;;;;;;;;6182617;23;20075;-84
2023/04/09 02:19:47;;;;;;;48.42;22.70;;;;;;;;;;6182585;23;20012;-84
2023/04/09 02:22:32;;;;;;;46.25;23.58;;;;;;;;;;6182218;23;20016;-85
2023/04/09 02:25:16;;;;;;;43.88;22.40;;;;;;;;;;6183228;23;20152;-85
2023/04/09 02:28:01;;;;;;;48.13;24.63;;;;;;;;;;6182307;23;20024;-85
2023/04/09 02:30:45;;;;;;;45.38;23.02;;;;;;;;;;6183888;23;20032;-85
2023/04/09 02:33:30;;;;;;;46.95;24.90;;;;;;;;;;6181690;23;20020;-85
2023/04/09 02:36:14;;;;;;;43.00;23.52;;;;;;;;;;6181678;23;20425;-85
2023/04/09 02:38:59;;;;;;;42.53;23.38;;;;;;;;;;6183804;23;20064;-85
2023/04/09 02:41:43;;;;;;;47.78;24.67;;;;;;;;;;6183722;23;20012;-85
2023/04/09 02:44:28;;;;;;;46.47;23.98;;;;;;;;;;6182876;23;20819;-85
2023/04/09 02:47:12;;;;;;;48.03;24.65;;;;;;;;;;6181874;23;20096;-85
2023/04/09 02:49:57;;;;;;;47.15;23.80;;;;;;;;;;6161406;23;20098;-85
2023/04/09 02:52:41;;;;;;;45.08;24.23;;;;;;;;;;6183733;23;20096;-85
2023/04/09 02:55:26;;;;;;;46.90;25.15;;;;;;;;;;6181681;23;20015;-85
2023/04/09 02:58:11;;;;;;;41.28;23.90;;;;;;;;;;6183109;23;20458;-87
2023/04/09 03:00:56;;;;;;;48.05;22.80;;;;;;;;;;6182341;23;20012;-85
2023/04/09 03:03:40;;;;;;;53.63;25.63;;;;;;;;;;6183519;23;20020;-85
2023/04/09 03:06:25;;;;;;;47.17;24.23;;;;;;;;;;6183032;23;20043;-85
2023/04/09 03:09:10;;;;;;;46.85;23.50;;;;;;;;;;6183562;23;20032;-85
2023/04/09 03:11:56;;;;;;;50.35;24.02;;;;;;;;;;6183358;23;20020;-84
2023/04/09 03:14:43;;;;;;;44.05;23.73;;;;;;;;;;6183491;23;20064;-85
2023/04/09 03:17:30;;;;;;;47.47;23.48;;;;;;;;;;6182701;23;20351;-85
2023/04/09 03:20:15;;;;;;;55.78;25.40;;;;;;;;;;6182935;23;20503;-87
2023/04/09 03:22:59;;;;;;;42.13;22.38;;;;;;;;;;6161318;23;20020;-85
2023/04/09 03:25:44;;;;;;;44.75;24.77;;;;;;;;;;6182073;23;20032;-85
2023/04/09 03:28:29;;;;;;;47.28;25.08;;;;;;;;;;6181639;23;20023;-85
2023/04/09 03:31:13;;;;;;;48.88;25.75;;;;;;;;;;6182000;23;20109;-86
2023/04/09 03:33:58;;;;;;;46.83;23.92;;;;;;;;;;6182065;23;20092;-85
2023/04/09 03:36:42;;;;;;;51.20;25.38;;;;;;;;;;6182022;23;20095;-85
2023/04/09 03:39:29;;;;;;;45.72;24.45;;;;;;;;;;6181448;23;20347;-85
2023/04/09 03:42:14;;;;;;;45.38;23.42;;;;;;;;;;6182084;23;20474;-84
2023/04/09 03:44:59;;;;;;;54.22;26.08;;;;;;;;;;6182164;23;20485;-84
2023/04/09 03:47:43;;;;;;;52.17;26.38;;;;;;;;;;6183278;23;20098;-85
2023/04/09 03:50:28;;;;;;;47.58;24.77;;;;;;;;;;6182734;23;20020;-85
2023/04/09 03:53:13;;;;;;;46.10;25.27;;;;;;;;;;6183390;23;20455;-85
2023/04/09 03:55:57;;;;;;;49.65;24.67;;;;;;;;;;6184319;23;20039;-84
2023/04/09 03:58:42;;;;;;;47.95;24.67;;;;;;;;;;6184827;23;20024;-85
2023/04/09 04:01:26;;;;;;;45.58;23.67;;;;;;;;;;6183260;23;20052;-85
2023/04/09 04:04:11;;;;;;;47.72;25.17;;;;;;;;;;6184064;23;20048;-85
2023/04/09 04:06:55;;;;;;;50.22;24.35;;;;;;;;;;6183805;23;20391;-86
2023/04/09 04:09:40;;;;;;;49.95;24.20;;;;;;;;;;6184239;23;20421;-85
2023/04/09 04:12:24;;;;;;;50.10;26.20;;;;;;;;;;6184338;23;20019;-84
2023/04/09 04:15:09;;;;;;;49.33;25.77;;;;;;;;;;6162938;23;20016;-85
2023/04/09 04:17:56;;;;;;;52.40;26.58;;;;;;;;;;6184992;23;20024;-84
2023/04/09 04:20:41;;;;;;;51.17;24.85;;;;;;;;;;6184322;23;20036;-84
2023/04/09 04:23:25;;;;;;;47.38;26.27;;;;;;;;;;6183122;23;20057;-85
2023/04/09 04:26:10;;;;;;;51.55;26.27;;;;;;;;;;6185001;23;20019;-85
2023/04/09 04:28:55;;;;;;;51.00;24.88;;;;;;;;;;6184924;23;20016;-85
2023/04/09 04:31:39;;;;;;;46.75;25.52;;;;;;;;;;6183020;23;20020;-85
2023/04/09 04:34:24;;;;;;;43.35;24.42;;;;;;;;;;6184177;23;20503;-86
2023/04/09 04:37:08;;;;;;;44.60;24.92;;;;;;;;;;6183697;23;20354;-85
2023/04/09 04:39:53;;;;;;;48.92;24.70;;;;;;;;;;6184966;23;20028;-85
2023/04/09 04:42:37;;;;;;;45.22;24.45;;;;;;;;;;6182861;23;20020;-86
2023/04/09 04:45:22;;;;;;;44.13;24.63;;;;;;;;;;6183626;23;20020;-85
2023/04/09 04:48:07;;;;;;;47.92;23.88;;;;;;;;;;6183519;23;20440;-85
2023/04/09 04:50:58;;;;;;;47.30;23.25;;;;;;;;;;6184786;23;20053;-85
2023/04/09 04:53:43;;;;;;;42.05;21.48;;;;;;;;;;6184214;23;20111;-86
2023/04/09 04:56:28;;;;;;;42.15;22.85;;;;;;;;;;6183877;23;20019;-85
2023/04/09 04:59:12;;;;;;;40.55;22.40;;;;;;;;;;6162669;23;20378;-85
2023/04/09 05:01:57;;;;;;;37.53;20.73;;;;;;;;;;6162397;23;20023;-85
2023/04/09 05:04:41;;;;;;;34.45;20.17;;;;;;;;;;6182855;23;20044;-84
2023/04/09 05:07:26;;;;;;;39.28;21.17;;;;;;;;;;6182809;23;20064;-88
2023/04/09 05:10:10;;;;;;;38.38;20.50;;;;;;;;;;6183033;23;20024;-85
2023/04/09 05:12:55;;;;;;;39.15;21.42;;;;;;;;;;6183117;23;20506;-85
2023/04/09 05:15:40;;;;;;;45.33;22.20;;;;;;;;;;6182563;23;20044;-85
2023/04/09 05:18:24;;;;;;;36.13;20.08;;;;;;;;;;6162312;23;20032;-85
2023/04/09 05:21:08;;;;;;;41.10;22.27;;;;;;;;;;6183257;23;20011;-84
2023/04/09 05:23:53;;;;;;;35.15;21.33;;;;;;;;;;6184450;23;20015;-84
2023/04/09 05:26:37;;;;;;;36.72;21.02;;;;;;;;;;6183771;23;20016;-84
2023/04/09 05:29:22;;;;;;;37.35;21.58;;;;;;;;;;6184345;23;20013;-84
2023/04/09 05:32:08;;;;;;;37.70;21.50;;;;;;;;;;6183027;23;20016;-85
2023/04/09 05:34:53;;;;;;;39.03;21.70;;;;;;;;;;6183735;23;20436;-84
2023/04/09 05:37:37;;;;;;;41.03;21.92;;;;;;;;;;6182188;23;20097;-84
2023/04/09 05:40:22;;;;;;;41.22;22.63;;;;;;;;;;6183035;23;20481;-84
2023/04/09 05:43:06;;;;;;;40.25;22.75;;;;;;;;;;6184193;23;20015;-85
2023/04/09 05:45:51;;;;;;;40.60;22.80;;;;;;;;;;6182319;23;20011;-85
2023/04/09 05:48:35;;;;;;;42.28;21.63;;;;;;;;;;6161440;23;20458;-85
2023/04/09 05:51:20;;;;;;;39.70;23.20;;;;;;;;;;6182819;23;20474;-85
2023/04/09 05:54:04;;;;;;;41.22;22.25;;;;;;;;;;6184176;23;20016;-84
2023/04/09 05:56:49;;;;;;;40.20;22.27;;;;;;;;;;6183465;23;20027;-84
2023/04/09 05:59:33;;;;;;;42.90;20.95;;;;;;;;;;6183518;23;20092;-87
2023/04/09 06:02:18;;;;;;;38.33;21.27;;;;;;;;;;6182615;23;20471;-85
2023/04/09 06:05:02;;;;;;;34.90;19.58;;;;;;;;;;6182566;23;20340;-86
2023/04/09 06:07:47;;;;;;;34.65;18.77;;;;;;;;;;6183280;23;20051;-85
2023/04/09 06:10:32;;;;;;;36.03;19.92;;;;;;;;;;6161285;23;20039;-85
2023/04/09 06:13:17;;;;;;;34.78;19.92;;;;;;;;;;6182628;23;20016;-84
2023/04/09 06:16:06;;;;;;;35.55;20.23;;;;;;;;;;6182703;23;20027;-85
2023/04/09 06:18:53;;;;;;;38.60;20.98;;;;;;;;;;6182710;23;20024;-85
2023/04/09 06:21:39;;;;;;;34.78;19.65;;;;;;;;;;6183180;23;20024;-85
2023/04/09 06:24:24;;;;;;;44.17;23.33;;;;;;;;;;6182556;23;20015;-85
2023/04/09 06:27:09;;;;;;;36.78;22.70;;;;;;;;;;6183766;23;20063;-85
2023/04/09 06:29:53;;;;;;;45.35;23.85;;;;;;;;;;6183349;23;20020;-86
2023/04/09 06:32:38;;;;;;;42.75;23.63;;;;;;;;;;6181931;23;20016;-86
2023/04/09 06:35:22;;;;;;;42.00;23.38;;;;;;;;;;6183820;23;20486;-85
2023/04/09 06:38:08;;;;;;;37.92;22.30;;;;;;;;;;6182448;23;20020;-87
2023/04/09 06:40:55;;;;;;;36.40;19.67;;;;;;;;;;6181831;23;20016;-86
2023/04/09 06:43:40;;;;;;;33.17;16.73;;;;;;;;;;6183156;23;20062;-85
2023/04/09 06:46:25;;;;;;;39.78;19.75;;;;;;;;;;6183718;23;20019;-86
2023/04/09 06:49:10;;;;;;;42.70;22.20;;;;;;;;;;6182534;23;20089;-85
2023/04/09 06:51:55;;;;;;;39.75;20.55;;;;;;;;;;6183164;23;20020;-86
2023/04/09 06:54:39;;;;;;;41.75;21.75;;;;;;;;;;6181952;23;20020;-88
2023/04/09 06:57:24;;;;;;;42.97;23.02;;;;;;;;;;6182295;23;20028;-85
2023/04/09 07:00:09;;;;;;;40.53;21.15;;;;;;;;;;6182652;23;20016;-86
2023/04/09 07:02:54;;;;;;;38.25;20.13;;;;;;;;;;6183085;23;20015;-85
2023/04/09 07:05:39;;;;;;;36.72;20.15;;;;;;;;;;6183494;23;20047;-85
2023/04/09 07:08:24;;;;;;;37.08;20.48;;;;;;;;;;6182383;23;20020;-85
2023/04/09 07:11:09;;;;;;;33.33;19.73;;;;;;;;;;6182283;23;20064;-84
2023/04/09 07:13:55;;;;;;;37.83;20.48;;;;;;;;;;6181652;23;20494;-85
2023/04/09 07:16:40;;;;;;;38.75;20.48;;;;;;;;;;6183490;23;20031;-85
2023/04/09 07:19:24;;;;;;;41.70;23.25;;;;;;;;;;6182036;23;20095;-85
2023/04/09 07:22:09;;;;;;;39.13;21.88;;;;;;;;;;6183445;23;20416;-85
2023/04/09 07:24:54;;;;;;;47.25;25.63;;;;;;;;;;6182938;23;20012;-85
2023/04/09 07:27:38;;;;;;;47.53;24.02;;;;;;;;;;6183245;23;20051;-85
2023/04/09 07:30:23;;;;;;;47.05;25.20;;;;;;;;;;6183686;23;20077;-85
2023/04/09 07:33:07;;;;;;;45.78;25.40;;;;;;;;;;6184866;23;20062;-85
2023/04/09 07:35:52;;;;;;;47.03;25.65;;;;;;;;;;6184684;23;20395;-85
2023/04/09 07:38:37;;;;;;;49.72;26.85;;;;;;;;;;6184038;23;20076;-85
2023/04/09 07:41:21;;;;;;;47.47;25.98;;;;;;;;;;6185361;23;20040;-85
2023/04/09 07:44:08;;;;;;;46.95;27.80;;;;;;;;;;6184733;23;20019;-87
2023/04/09 07:46:53;;;;;;;45.67;25.90;;;;;;;;;;6184141;23;20035;-86
2023/04/09 07:49:38;;;;;;;47.08;26.08;;;;;;;;;;6183579;23;20016;-87
2023/04/09 07:52:22;;;;;;;45.53;23.52;;;;;;;;;;6187103;23;20063;-86
2023/04/09 07:55:08;;;;;;;42.42;23.25;;;;;;;;;;6184478;23;20012;-85
2023/04/09 07:57:53;;;;;;;44.40;24.85;;;;;;;;;;6162329;23;20416;-84
2023/04/09 08:00:38;;;;;;;46.30;25.33;;;;;;;;;;6183880;23;20143;-85
2023/04/09 08:03:22;;;;;;;44.72;25.05;;;;;;;;;;6163001;23;20444;-84
2023/04/09 08:06:07;;;;;;;44.95;25.67;;;;;;;;;;6184526;23;20028;-84
2023/04/09 08:08:52;;;;;;;39.88;22.60;;;;;;;;;;6182712;23;20482;-84
2023/04/09 08:11:36;;;;;;;44.05;24.02;;;;;;;;;;6185124;23;20016;-84
2023/04/09 08:14:21;;;;;;;44.75;24.42;;;;;;;;;;6184892;23;20503;-84
2023/04/09 08:17:05;;;;;;;39.70;24.42;;;;;;;;;;6184213;23;20020;-84
2023/04/09 08:19:50;;;;;;;42.03;22.30;;;;;;;;;;6183494;23;20020;-86
2023/04/09 08:22:35;;;;;;;41.10;25.58;;;;;;;;;;6183631;23;20035;-85
2023/04/09 08:25:20;;;;;;;43.88;25.58;;;;;;;;;;6184685;23;20386;-84
2023/04/09 08:28:05;;;;;;;46.63;25.92;;;;;;;;;;6184369;23;20406;-83
2023/04/09 08:30:49;;;;;;;38.72;23.90;;;;;;;;;;6183628;23;20071;-84
2023/04/09 08:33:36;;;;;;;38.42;23.50;;;;;;;;;;6162652;23;20024;-83
2023/04/09 08:36:21;;;;;;;41.88;23.42;;;;;;;;;;6183565;23;20514;-83
2023/04/09 08:39:06;;;;;;;43.45;26.17;;;;;;;;;;6183953;23;20035;-84
2023/04/09 08:41:51;;;;;;;40.80;24.30;;;;;;;;;;6183235;23;20024;-87
2023/04/09 08:44:36;;;;;;;40.08;24.30;;;;;;;;;;6183548;23;20016;-85
2023/04/09 08:47:23;;;;;;;42.45;24.63;;;;;;;;;;6184825;23;20348;-86
2023/04/09 08:50:08;;;;;;;41.80;24.30;;;;;;;;;;6182851;23;20093;-83
2023/04/09 08:52:54;;;;;;;39.08;24.30;;;;;;;;;;6184766;23;20020;-83
2023/04/09 08:55:38;;;;;;;39.42;22.30;;;;;;;;;;6183162;23;20066;-84
2023/04/09 08:58:23;;;;;;;39.22;22.38;;;;;;;;;;6183427;23;20387;-84
2023/04/09 09:01:18;;;;;;;41.25;24.00;;;;;;;;;;6184152;23;20016;-83
2023/04/09 09:04:03;;;;;;;39.38;23.02;;;;;;;;;;6181903;23;20012;-86
2023/04/09 09:06:48;;;;;;;38.17;23.20;;;;;;;;;;6182754;23;20067;-88
2023/04/09 09:09:32;;;;;;;41.65;23.80;;;;;;;;;;6161855;23;20028;-85
2023/04/09 09:12:32;;;;;;;39.20;22.10;;;;;;;;;;6182423;23;20287;-84
2023/04/09 09:15:26;;;;;;;35.38;20.90;;;;;;;;;;6183425;23;20031;-84
2023/04/09 09:18:11;;;;;;;38.85;22.70;;;;;;;;;;6182429;23;20020;-83
2023/04/09 09:21:09;;;;;;;37.15;21.50;;;;;;;;;;6181931;23;20551;-82
2023/04/09 09:23:53;;;;;;;36.42;23.45;;;;;;;;;;6183304;23;20016;-83
2023/04/09 09:26:38;;;;;;;36.85;21.55;;;;;;;;;;6182075;23;20395;-83
2023/04/09 09:29:23;;;;;;;37.03;21.45;;;;;;;;;;6181459;23;20012;-83
2023/04/09 09:32:13;;;;;;;38.05;22.48;;;;;;;;;;6160755;23;20024;-83
2023/04/09 09:35:00;;;;;;;36.45;21.50;;;;;;;;;;6184217;23;20071;-83
2023/04/09 09:37:45;;;;;;;35.47;20.02;;;;;;;;;;6182741;23;20027;-83
2023/04/09 09:40:30;;;;;;;35.08;22.08;;;;;;;;;;6182855;23;20063;-83
2023/04/09 09:43:15;;;;;;;36.50;22.13;;;;;;;;;;6182359;23;20023;-83
2023/04/09 09:46:00;;;;;;;38.17;22.15;;;;;;;;;;6182716;23;20078;-82
2023/04/09 09:48:45;;;;;;;34.75;21.77;;;;;;;;;;6184007;23;20024;-83
2023/04/09 09:51:31;;;;;;;36.22;21.50;;;;;;;;;;6184032;23;20399;-83
2023/04/09 09:54:19;;;;;;;30.73;19.17;;;;;;;;;;6183283;23;20016;-83
2023/04/09 09:57:08;;;;;;;33.78;21.08;;;12.40;99.90;;;;;;6182378;23;20056;-86
2023/04/09 10:00:03;;;;;;;33.67;20.80;;;;;;;;;;6182708;23;20016;-83
2023/04/09 10:02:53;;;;;;;36.00;22.08;;;;;;;;;;6184075;23;20016;-83
2023/04/09 10:05:40;;;;;;;34.85;20.65;;;;;;;;;;6183862;23;20012;-83
2023/04/09 10:08:25;;;;;;;31.80;19.70;;;;;;;;;;6182104;23;20966;-84
2023/04/09 10:11:11;;;;;;;31.70;19.02;;;;;;;;;;6161460;23;20116;-84
2023/04/09 10:14:00;;;;;;;32.17;19.27;;;;;;;;;;6183882;23;20072;-83
2023/04/09 10:16:46;;;;;;;30.98;19.70;;;;;;;;;;6183928;23;20052;-83
2023/04/09 10:19:31;;;;;;;31.73;19.92;;;;;;;;;;6182051;23;20016;-83
2023/04/09 10:22:17;;;;;;;37.08;21.38;;;;;;;;;;6181861;23;20083;-84
2023/04/09 10:25:03;;;;;;;32.75;19.25;;;;;;;;;;6182590;23;20055;-83
2023/04/09 10:28:01;;;;;;;30.23;18.40;;;;;;;;;;6183758;23;20087;-83
2023/04/09 10:30:45;;;;;;;31.65;19.92;;;;;;;;;;6186539;23;20051;-83
2023/04/09 10:33:30;;;;;;;30.38;18.58;;;;;;;;;;6181882;23;20020;-83
2023/04/09 10:36:19;;;;;;;34.55;19.20;;;;;;;;;;6182962;23;20455;-83
2023/04/09 10:39:11;;;;;;;33.28;19.55;;;;;;;;;;6183661;23;20025;-84
2023/04/09 10:41:56;;;;;;;30.75;18.95;;;;;;;;;;6183691;23;20019;-83
2023/04/09 10:44:41;;;;;;;31.30;20.40;;;;;;;;;;6183636;23;20531;-84
2023/04/09 10:47:33;;;;;;;30.70;19.98;;;;;;;;;;6181828;23;20020;-84
2023/04/09 10:50:22;;;;;;;29.45;19.88;;;;;;;;;;6183010;23;20097;-84
2023/04/09 10:53:06;;;;;;;30.65;19.73;;;;;;;;;;6161575;23;20023;-83
2023/04/09 10:55:52;;;;;;;28.10;17.50;;;;;;;;;;6183638;23;20459;-83
2023/04/09 10:58:37;;;;;;;29.48;18.17;;;;;;;;;;6183140;23;20032;-83
2023/04/09 11:01:22;;;;;;;38.50;20.75;;;;;;;;;;6181601;23;20016;-83
2023/04/09 11:04:08;;;;;;;30.80;18.95;;;;;;;;;;6181987;23;20159;-84
2023/04/09 11:06:54;;;;;;;28.38;18.88;;;;;;;;;;6182081;23;20463;-84
2023/04/09 11:09:41;;;;;;;27.45;18.85;;;;;;;;;;6181767;23;20063;-83
2023/04/09 11:12:25;;;;;;;29.60;18.80;;;;;;;;;;6182749;23;20016;-82
2023/04/09 11:15:19;;;;;;;26.40;17.27;;;;;;;;;;6183486;23;20380;-83
2023/04/09 11:18:12;;;;;;;24.15;15.57;;;;;;;;;;6182102;23;20383;-83
2023/04/09 11:21:02;;;;;;;27.52;17.38;;;;;;;;;;6183311;23;20067;-83
2023/04/09 11:23:53;;;;;;;25.85;17.05;;;;;;;;;;6183292;23;20096;-83
2023/04/09 11:26:37;;;;;;;26.85;18.23;;;;;;;;;;6182789;23;20339;-83
2023/04/09 11:29:22;;;;;;;26.80;17.85;;;;;;;;;;6182719;23;20016;-83
2023/04/09 11:32:07;;;;;;;31.15;18.23;;;;;;;;;;6183466;23;20397;-83
2023/04/09 11:34:52;;;;;;;27.30;17.42;;;;;;;;;;6182086;23;20336;-83
2023/04/09 11:37:36;;;;;;;23.10;16.52;;;;;;;;;;6160372;23;20642;-84
2023/04/09 11:40:22;;;;;;;23.30;16.30;;;;;;;;;;6182767;23;20067;-83
2023/04/09 11:43:07;;;;;;;26.15;16.92;;;;;;;;;;6183290;23;20091;-83
2023/04/09 11:45:52;;;;;;;26.80;16.88;;;;;;;;;;6182074;23;20021;-84
2023/04/09 11:48:36;;;;;;;24.88;16.17;;;;;;;;;;6181570;23;20036;-83
2023/04/09 11:51:22;;;;;;;23.08;15.77;;;;;;;;;;6181417;23;20020;-84
2023/04/09 11:54:07;;;;;;;23.52;15.60;;;;;;;;;;6183390;23;20016;-84
2023/04/09 11:56:54;;;;;;;25.60;16.75;;;;;;;;;;6183342;23;20024;-83
2023/04/09 11:59:39;;;;;;;23.35;15.88;;;;;;;;;;6181464;23;20144;-83
2023/04/09 12:02:24;;;;;;;22.40;16.05;;;;;;;;;;6181532;23;20027;-83
2023/04/09 12:05:10;;;;;;;24.98;16.08;;;;;;;;;;6182065;23;20021;-83
2023/04/09 12:08:00;;;;;;;24.40;16.60;;;;;;;;;;6161184;23;20057;-83
2023/04/09 12:10:45;;;;;;;25.73;17.33;;;;;;;;;;6182291;23;20335;-83
2023/04/09 12:13:33;;;;;;;25.42;16.63;;;;;;;;;;6182592;23;20076;-83
2023/04/09 12:16:21;;;;;;;23.33;15.85;;;;;;;;;;6182510;23;20062;-83
2023/04/09 12:19:07;;;;;;;24.73;16.90;;;;;;;;;;6183873;23;20104;-83
2023/04/09 12:21:54;;;;;;;25.05;16.75;;;;;;;;;;6183814;23;20144;-83
2023/04/09 12:24:39;;;;;;;24.80;16.10;;;;;;;;;;6184346;23;20103;-84
2023/04/09 12:27:23;;;;;;;23.83;16.27;;;;;;;;;;6183519;23;20040;-85
2023/04/09 12:30:09;;;;;;;25.27;16.70;;;;;;;;;;6185031;23;20095;-84
2023/04/09 12:32:54;;;;;;;27.02;16.92;;;;;;;;;;6183551;23;20344;-83
2023/04/09 12:35:39;;;;;;;26.60;16.35;;;;;;;;;;6182920;23;20016;-84
2023/04/09 12:38:25;;;;;;;22.48;15.05;;;;;;;;;;6184480;23;20020;-86
2023/04/09 12:41:10;;;;;;;23.17;13.48;;;;;;;;;;6183666;23;20019;-83
2023/04/09 12:43:54;;;;;;;22.50;15.13;;;;;;;;;;6184938;23;20016;-83
2023/04/09 12:46:39;;;;;;;20.20;13.32;;;;;;;;;;6184288;23;20097;-83
2023/04/09 12:49:24;;;;;;;20.55;14.52;;;;;;;;;;6183460;23;20019;-83
2023/04/09 12:52:09;;;;;;;20.98;14.25;;;;;;;;;;6183453;23;20104;-83
2023/04/09 12:54:54;;;;;;;22.20;14.77;;;;;;;;;;6162562;23;20032;-83
2023/04/09 12:57:39;;;;;;;18.85;13.50;;;;;;;;;;6182714;23;20028;-84
2023/04/09 13:00:24;;;;;;;22.08;14.02;;;;;;;;;;6184660;23;20083;-83
2023/04/09 13:03:08;;;;;;;19.50;12.85;;;;;;;;;;6183443;23;20059;-82
2023/04/09 13:05:53;;;;;;;20.80;13.40;;;;;;;;;;6182870;23;20027;-83
2023/04/09 13:08:37;;;;;;;19.92;13.07;;;;;;;;;;6182519;23;20020;-84
2023/04/09 13:11:22;;;;;;;21.42;13.77;;;;;;;;;;6162735;23;20027;-83
2023/04/09 13:14:12;;;;;;;19.75;13.05;;;;;;;;;;6141611;23;20344;-85
2023/04/09 13:16:57;;;;;;;18.92;12.85;;;;;;;;;;6184370;23;20103;-83
2023/04/09 13:19:41;;;;;;;18.98;12.13;;;;;;;;;;6183930;23;20057;-83
2023/04/09 13:22:26;;;;;;;20.15;13.75;;;;;;;;;;6162055;23;20454;-84
2023/04/09 13:25:10;;;;;;;20.67;14.15;;;;;;;;;;6184527;23;20394;-84
2023/04/09 13:27:55;;;;;;;19.55;13.27;;;;;;;;;;6183496;23;20040;-84
2023/04/09 13:30:40;;;;;;;20.15;13.30;;;;;;;;;;6180895;23;20494;-84
2023/04/09 13:33:25;;;;;;;20.70;13.63;;;;;;;;;;6183415;23;20040;-86
2023/04/09 13:36:10;;;;;;;22.65;14.75;;;;;;;;;;6159674;23;20072;-84
2023/04/09 13:39:02;;;;;;;18.30;13.05;;;;;;;;;;6139179;23;20031;-83
2023/04/09 13:41:48;;;;;;;19.92;13.65;;;;;;;;;;6161063;23;20035;-83
2023/04/09 13:44:34;;;;;;;20.77;14.13;;;;;;;;;;6183103;23;20091;-83
2023/04/09 13:47:18;;;;;;;19.85;13.60;;;;;;;;;;6183592;23;20028;-83
2023/04/09 13:50:03;;;;;;;18.90;13.15;;;;;;;;;;6184400;23;20016;-83
2023/04/09 13:52:48;;;;;;;22.23;14.85;;;;;;;;;;6161348;23;20020;-82
2023/04/09 13:55:33;;;;;;;19.90;13.80;;;;;;;;;;6184290;23;20101;-81
2023/04/09 13:58:17;;;;;;;19.80;13.80;;;;;;;;;;6140907;23;20140;-83
2023/04/09 14:01:02;;;;;;;20.77;14.07;;;;;;;;;;6183679;23;20023;-83
2023/04/09 14:03:46;;;;;;;19.88;14.20;;;;;;;;;;6183384;23;20020;-82
2023/04/09 14:06:31;;;;;;;21.63;13.48;;;;;;;;;;6184109;23;20157;-83
2023/04/09 14:09:15;;;;;;;20.95;14.38;;;;;;;;;;6183910;23;20024;-82
2023/04/09 14:12:00;;;;;;;20.95;14.50;;;;;;;;;;6183310;23;20043;-82
2023/04/09 14:14:45;;;;;;;19.35;12.80;;;;;;;;;;6182201;23;20019;-82
2023/04/09 14:17:29;;;;;;;18.40;13.02;;;;;;;;;;6182550;23;20020;-82
2023/04/09 14:20:14;;;;;;;20.92;13.23;;;;;;;;;;6184336;23;20084;-82
2023/04/09 14:22:59;;;;;;;20.30;13.95;;;;;;;;;;6184499;23;20866;-82
2023/04/09 14:25:44;;;;;;;18.38;12.95;;;;;;;;;;6182242;23;20348;-82
2023/04/09 14:28:29;;;;;;;18.45;12.82;;;;;;;;;;6183626;23;20019;-82
2023/04/09 14:31:13;;;;;;;18.65;12.57;;;;;;;;;;6183642;23;20019;-82
2023/04/09 14:33:58;;;;;;;18.38;12.60;;;;;;;;;;6180787;23;20015;-83
2023/04/09 14:36:42;;;;;;;20.35;13.18;;;;;;;;;;6179447;23;20156;-85
2023/04/09 14:39:27;;;;;;;17.27;12.88;;;;;;;;;;6181532;23;20068;-83
2023/04/09 14:42:11;;;;;;;21.15;14.38;;;;;;;;;;6183578;23;20060;-83
2023/04/09 14:44:55;;;;;;;19.63;13.75;;;;;;;;;;6161021;23;20019;-82
2023/04/09 14:47:40;;;;;;;18.05;12.73;;;;;;;;;;6161814;23;20467;-84
2023/04/09 14:50:25;;;;;;;20.52;13.32;;;;;;;;;;6183424;23;20020;-82
2023/04/09 14:53:13;;;;;;;20.23;12.98;;;;;;;;;;6179837;23;20035;-84
2023/04/09 14:55:57;;;;;;;20.88;13.68;;;;;;;;;;6178873;23;20020;-84
2023/04/09 14:58:42;;;;;;;18.73;12.65;;;;;;;;;;6177350;23;20419;-84
2023/04/09 15:01:27;;;;;;;19.42;13.50;;;;;;;;;;6178314;23;20020;-83
2023/04/09 15:04:11;;;;;;;19.45;13.63;;;;;;;;;;6177809;23;20435;-83
2023/04/09 15:06:56;;;;;;;18.92;13.13;;;;;;;;;;6178697;23;20039;-83
2023/04/09 15:09:40;;;;;;;18.85;12.70;;;;;;;;;;6178914;23;20063;-85
2023/04/09 15:12:26;;;;;;;17.25;12.02;;;;;;;;;;6177423;23;20024;-85
2023/04/09 15:15:13;;;;;;;17.10;11.55;;;;;;;;;;6178044;23;20021;-83
2023/04/09 15:18:04;;;;;;;15.10;10.40;;;;;;;;;;6178122;23;20039;-84
2023/04/09 15:20:51;;;;;;;17.35;11.35;;;;;;;;;;6179178;23;20520;-86
2023/04/09 15:23:35;;;;;;;16.63;10.88;;;;;;;;;;6179464;23;20144;-84
2023/04/09 15:26:20;;;;;;;17.40;11.95;;;;;;;;;;6179301;23;20015;-85
2023/04/09 15:29:06;;;;;;;17.77;12.30;;;;;;;;;;6176659;23;20419;-85
2023/04/09 15:31:52;;;;;;;19.58;13.23;;;;;;;;;;6180132;23;20379;-86
2023/04/09 15:34:37;;;;;;;19.30;12.35;;;;;;;;;;6183331;23;20057;-84
2023/04/09 15:37:22;;;;;;;18.63;12.23;;;;;;;;;;6183233;23;20040;-84
2023/04/09 15:40:07;;;;;;;19.00;12.13;;;;;;;;;;6182793;23;20075;-84
2023/04/09 15:42:52;;;;;;;18.27;12.02;;;;;;;;;;6181758;23;20021;-86
2023/04/09 15:45:36;;;;;;;17.73;11.93;;;;;;;;;;6183531;23;20067;-83
2023/04/09 15:48:21;;;;;;;17.15;11.65;;;;;;;;;;6183555;23;20020;-83
2023/04/09 15:51:06;;;;;;;19.42;12.30;;;;;;;;;;6183837;23;20027;-84
2023/04/09 15:53:50;;;;;;;20.40;13.82;;;;;;;;;;6163302;23;20019;-83
2023/04/09 15:56:38;;;;;;;17.38;13.13;;;;;;;;;;6185189;23;20023;-83
2023/04/09 15:59:22;;;;;;;19.55;12.57;;;;;;;;;;6184072;23;20031;-83
2023/04/09 16:02:07;;;;;;;17.83;11.60;;;;;;;;;;6184671;23;20068;-83